sensor_id;sensor_type;location;lat;lon;timestamp;temperature;humidity
39493;DHT22;25176;51.060;3.720;2023-04-10T00:01:01;13.80;77.30
39493;DHT22;25176;51.060;3.720;2023-04-10T00:03:27;13.80;76.80
39493;DHT22;25176;51.060;3.720;2023-04-10T00:05:53;13.70;76.90
39493;DHT22;25176;51.060;3.720;2023-04-10T00:08:21;13.60;76.70
39493;DHT22;25176;51.060;3.720;2023-04-10T00:10:46;13.50;77.20
39493;DHT22;25176;51.060;3.720;2023-04-10T00:13:13;13.50;77.20
39493;DHT22;25176;51.060;3.720;2023-04-10T00:15:38;13.50;76.80
39493;DHT22;25176;51.060;3.720;2023-04-10T00:18:04;13.40;76.90
39493;DHT22;25176;51.060;3.720;2023-04-10T00:20:29;13.40;77.10
39493;DHT22;25176;51.060;3.720;2023-04-10T00:22:55;13.40;77.10
39493;DHT22;25176;51.060;3.720;2023-04-10T00:25:20;13.40;76.50
39493;DHT22;25176;51.060;3.720;2023-04-10T00:27:47;13.30;76.70
39493;DHT22;25176;51.060;3.720;2023-04-10T00:30:13;13.40;76.40
39493;DHT22;25176;51.060;3.720;2023-04-10T00:32:38;13.40;76.40
39493;DHT22;25176;51.060;3.720;2023-04-10T00:35:05;13.30;76.20
39493;DHT22;25176;51.060;3.720;2023-04-10T00:37:31;13.30;76.90
39493;DHT22;25176;51.060;3.720;2023-04-10T00:39:56;13.30;76.50
39493;DHT22;25176;51.060;3.720;2023-04-10T00:42:22;13.30;76.50
39493;DHT22;25176;51.060;3.720;2023-04-10T00:44:47;13.30;76.50
39493;DHT22;25176;51.060;3.720;2023-04-10T00:47:13;13.30;76.40
39493;DHT22;25176;51.060;3.720;2023-04-10T00:49:40;13.30;76.30
39493;DHT22;25176;51.060;3.720;2023-04-10T00:52:06;13.30;76.20
39493;DHT22;25176;51.060;3.720;2023-04-10T00:54:32;13.40;76.00
39493;DHT22;25176;51.060;3.720;2023-04-10T00:57:01;13.40;76.10
39493;DHT22;25176;51.060;3.720;2023-04-10T00:59:27;13.30;75.80
39493;DHT22;25176;51.060;3.720;2023-04-10T01:01:53;13.40;76.10
39493;DHT22;25176;51.060;3.720;2023-04-10T01:04:19;13.40;75.90
39493;DHT22;25176;51.060;3.720;2023-04-10T01:06:58;13.40;75.90
39493;DHT22;25176;51.060;3.720;2023-04-10T01:09:46;13.40;75.30
39493;DHT22;25176;51.060;3.720;2023-04-10T01:13:13;13.40;75.50
39493;DHT22;25176;51.060;3.720;2023-04-10T01:16:08;13.40;75.60
39493;DHT22;25176;51.060;3.720;2023-04-10T01:18:33;13.40;75.60
39493;DHT22;25176;51.060;3.720;2023-04-10T01:21:04;13.40;75.70
39493;DHT22;25176;51.060;3.720;2023-04-10T01:23:52;13.30;75.60
39493;DHT22;25176;51.060;3.720;2023-04-10T01:26:55;13.30;75.60
39493;DHT22;25176;51.060;3.720;2023-04-10T01:29:17;13.30;75.60
39493;DHT22;25176;51.060;3.720;2023-04-10T01:32:03;13.20;76.00
39493;DHT22;25176;51.060;3.720;2023-04-10T01:34:40;13.40;75.50
39493;DHT22;25176;51.060;3.720;2023-04-10T01:37:12;13.30;75.50
39493;DHT22;25176;51.060;3.720;2023-04-10T01:39:41;13.30;75.00
39493;DHT22;25176;51.060;3.720;2023-04-10T01:42:10;13.10;75.60
39493;DHT22;25176;51.060;3.720;2023-04-10T01:44:40;13.10;75.80
39493;DHT22;25176;51.060;3.720;2023-04-10T01:47:07;13.10;75.80
39493;DHT22;25176;51.060;3.720;2023-04-10T01:49:34;13.10;75.50
39493;DHT22;25176;51.060;3.720;2023-04-10T01:52:02;13.10;75.60
39493;DHT22;25176;51.060;3.720;2023-04-10T01:54:29;13.10;75.40
39493;DHT22;25176;51.060;3.720;2023-04-10T01:57:00;13.10;75.30
39493;DHT22;25176;51.060;3.720;2023-04-10T01:59:26;13.00;75.60
39493;DHT22;25176;51.060;3.720;2023-04-10T02:01:59;13.10;75.60
39493;DHT22;25176;51.060;3.720;2023-04-10T02:04:25;13.20;75.30
39493;DHT22;25176;51.060;3.720;2023-04-10T02:07:09;13.00;75.10
39493;DHT22;25176;51.060;3.720;2023-04-10T02:12:15;12.90;75.90
39493;DHT22;25176;51.060;3.720;2023-04-10T02:14:45;12.90;75.80
39493;DHT22;25176;51.060;3.720;2023-04-10T02:17:15;12.90;76.00
39493;DHT22;25176;51.060;3.720;2023-04-10T02:19:42;12.70;76.30
39493;DHT22;25176;51.060;3.720;2023-04-10T02:22:09;12.60;76.50
39493;DHT22;25176;51.060;3.720;2023-04-10T02:24:35;12.50;76.90
39493;DHT22;25176;51.060;3.720;2023-04-10T02:27:00;12.60;76.90
39493;DHT22;25176;51.060;3.720;2023-04-10T02:29:26;12.50;77.00
39493;DHT22;25176;51.060;3.720;2023-04-10T02:31:52;12.60;77.00
39493;DHT22;25176;51.060;3.720;2023-04-10T02:34:17;12.50;76.80
39493;DHT22;25176;51.060;3.720;2023-04-10T02:36:43;12.60;76.80
39493;DHT22;25176;51.060;3.720;2023-04-10T02:39:08;12.60;76.50
39493;DHT22;25176;51.060;3.720;2023-04-10T02:41:34;12.70;76.20
39493;DHT22;25176;51.060;3.720;2023-04-10T02:43:59;12.70;75.80
39493;DHT22;25176;51.060;3.720;2023-04-10T02:46:25;12.80;75.90
39493;DHT22;25176;51.060;3.720;2023-04-10T02:48:51;12.90;75.60
39493;DHT22;25176;51.060;3.720;2023-04-10T02:51:17;13.00;75.30
39493;DHT22;25176;51.060;3.720;2023-04-10T02:53:42;13.00;75.20
39493;DHT22;25176;51.060;3.720;2023-04-10T02:56:08;12.90;75.20
39493;DHT22;25176;51.060;3.720;2023-04-10T02:58:36;12.90;75.20
39493;DHT22;25176;51.060;3.720;2023-04-10T03:01:01;12.90;75.20
39493;DHT22;25176;51.060;3.720;2023-04-10T03:03:27;12.80;75.20
39493;DHT22;25176;51.060;3.720;2023-04-10T03:05:53;12.70;75.90
39493;DHT22;25176;51.060;3.720;2023-04-10T03:08:18;12.80;75.80
39493;DHT22;25176;51.060;3.720;2023-04-10T03:10:45;12.80;75.50
39493;DHT22;25176;51.060;3.720;2023-04-10T03:13:11;12.60;75.40
39493;DHT22;25176;51.060;3.720;2023-04-10T03:15:37;12.60;76.00
39493;DHT22;25176;51.060;3.720;2023-04-10T03:18:03;12.60;75.70
39493;DHT22;25176;51.060;3.720;2023-04-10T03:20:33;12.60;75.60
39493;DHT22;25176;51.060;3.720;2023-04-10T03:23:00;12.50;76.10
39493;DHT22;25176;51.060;3.720;2023-04-10T03:25:26;12.50;75.70
39493;DHT22;25176;51.060;3.720;2023-04-10T03:27:51;12.40;76.10
39493;DHT22;25176;51.060;3.720;2023-04-10T03:30:17;12.30;76.10
39493;DHT22;25176;51.060;3.720;2023-04-10T03:32:43;12.30;76.40
39493;DHT22;25176;51.060;3.720;2023-04-10T03:35:09;12.30;76.20
39493;DHT22;25176;51.060;3.720;2023-04-10T03:37:35;12.30;76.00
39493;DHT22;25176;51.060;3.720;2023-04-10T03:40:05;12.40;76.30
39493;DHT22;25176;51.060;3.720;2023-04-10T03:42:31;12.30;76.10
39493;DHT22;25176;51.060;3.720;2023-04-10T03:44:57;12.20;76.10
39493;DHT22;25176;51.060;3.720;2023-04-10T03:47:22;12.20;76.50
39493;DHT22;25176;51.060;3.720;2023-04-10T03:49:48;12.20;76.30
39493;DHT22;25176;51.060;3.720;2023-04-10T03:52:13;12.20;76.50
39493;DHT22;25176;51.060;3.720;2023-04-10T03:54:39;12.20;76.30
39493;DHT22;25176;51.060;3.720;2023-04-10T03:57:05;12.30;76.30
39493;DHT22;25176;51.060;3.720;2023-04-10T03:59:30;12.40;75.80
39493;DHT22;25176;51.060;3.720;2023-04-10T04:01:56;12.40;75.50
39493;DHT22;25176;51.060;3.720;2023-04-10T04:04:21;12.40;75.30
39493;DHT22;25176;51.060;3.720;2023-04-10T04:06:47;12.30;75.80
39493;DHT22;25176;51.060;3.720;2023-04-10T04:09:13;12.30;75.90
39493;DHT22;25176;51.060;3.720;2023-04-10T04:11:38;12.20;75.90
39493;DHT22;25176;51.060;3.720;2023-04-10T04:14:04;12.20;76.00
39493;DHT22;25176;51.060;3.720;2023-04-10T04:16:30;12.10;76.40
39493;DHT22;25176;51.060;3.720;2023-04-10T04:18:56;12.10;76.20
39493;DHT22;25176;51.060;3.720;2023-04-10T04:21:21;12.20;76.30
39493;DHT22;25176;51.060;3.720;2023-04-10T04:23:47;12.10;76.00
39493;DHT22;25176;51.060;3.720;2023-04-10T04:26:12;12.10;76.30
39493;DHT22;25176;51.060;3.720;2023-04-10T04:28:38;12.20;76.40
39493;DHT22;25176;51.060;3.720;2023-04-10T04:31:03;12.20;75.90
39493;DHT22;25176;51.060;3.720;2023-04-10T04:33:29;12.20;76.30
39493;DHT22;25176;51.060;3.720;2023-04-10T04:35:56;12.10;76.20
39493;DHT22;25176;51.060;3.720;2023-04-10T04:38:21;12.20;76.30
39493;DHT22;25176;51.060;3.720;2023-04-10T04:40:47;12.20;76.00
39493;DHT22;25176;51.060;3.720;2023-04-10T04:43:13;12.20;76.00
39493;DHT22;25176;51.060;3.720;2023-04-10T04:45:38;12.20;75.30
39493;DHT22;25176;51.060;3.720;2023-04-10T04:48:04;12.10;76.40
39493;DHT22;25176;51.060;3.720;2023-04-10T04:50:29;12.10;76.70
39493;DHT22;25176;51.060;3.720;2023-04-10T04:52:55;12.10;76.40
39493;DHT22;25176;51.060;3.720;2023-04-10T04:55:20;12.20;75.80
39493;DHT22;25176;51.060;3.720;2023-04-10T04:57:46;12.20;75.80
39493;DHT22;25176;51.060;3.720;2023-04-10T05:00:12;12.00;75.60
39493;DHT22;25176;51.060;3.720;2023-04-10T05:02:37;12.00;76.10
39493;DHT22;25176;51.060;3.720;2023-04-10T05:05:03;12.00;75.90
39493;DHT22;25176;51.060;3.720;2023-04-10T05:07:29;12.10;75.80
39493;DHT22;25176;51.060;3.720;2023-04-10T05:09:54;12.00;75.80
39493;DHT22;25176;51.060;3.720;2023-04-10T05:12:20;12.00;75.60
39493;DHT22;25176;51.060;3.720;2023-04-10T05:14:46;12.00;76.00
39493;DHT22;25176;51.060;3.720;2023-04-10T05:17:11;12.10;75.50
39493;DHT22;25176;51.060;3.720;2023-04-10T05:19:37;12.00;75.40
39493;DHT22;25176;51.060;3.720;2023-04-10T05:22:02;11.90;76.20
39493;DHT22;25176;51.060;3.720;2023-04-10T05:24:28;11.80;76.10
39493;DHT22;25176;51.060;3.720;2023-04-10T05:26:53;11.80;75.90
39493;DHT22;25176;51.060;3.720;2023-04-10T05:29:19;11.90;76.00
39493;DHT22;25176;51.060;3.720;2023-04-10T05:31:45;12.00;75.50
39493;DHT22;25176;51.060;3.720;2023-04-10T05:34:10;12.10;75.40
39493;DHT22;25176;51.060;3.720;2023-04-10T05:36:36;12.10;75.00
39493;DHT22;25176;51.060;3.720;2023-04-10T05:39:01;12.10;75.00
39493;DHT22;25176;51.060;3.720;2023-04-10T05:41:27;12.20;74.70
39493;DHT22;25176;51.060;3.720;2023-04-10T05:43:52;12.30;74.70
39493;DHT22;25176;51.060;3.720;2023-04-10T05:46:18;12.40;74.40
39493;DHT22;25176;51.060;3.720;2023-04-10T05:48:44;12.40;73.90
39493;DHT22;25176;51.060;3.720;2023-04-10T05:51:09;12.20;74.10
39493;DHT22;25176;51.060;3.720;2023-04-10T05:53:35;12.20;74.10
39493;DHT22;25176;51.060;3.720;2023-04-10T05:56:01;12.30;74.40
39493;DHT22;25176;51.060;3.720;2023-04-10T05:58:27;12.20;74.10
39493;DHT22;25176;51.060;3.720;2023-04-10T06:00:53;12.20;74.40
39493;DHT22;25176;51.060;3.720;2023-04-10T06:03:20;12.10;74.80
39493;DHT22;25176;51.060;3.720;2023-04-10T06:05:46;12.00;74.60
39493;DHT22;25176;51.060;3.720;2023-04-10T06:08:11;12.00;74.90
39493;DHT22;25176;51.060;3.720;2023-04-10T06:10:37;12.00;75.10
39493;DHT22;25176;51.060;3.720;2023-04-10T06:13:02;12.00;74.60
39493;DHT22;25176;51.060;3.720;2023-04-10T06:15:28;12.00;75.10
39493;DHT22;25176;51.060;3.720;2023-04-10T06:17:54;11.90;75.10
39493;DHT22;25176;51.060;3.720;2023-04-10T06:20:20;11.90;75.50
39493;DHT22;25176;51.060;3.720;2023-04-10T06:22:45;11.90;75.50
39493;DHT22;25176;51.060;3.720;2023-04-10T06:25:12;12.00;75.10
39493;DHT22;25176;51.060;3.720;2023-04-10T06:27:37;12.10;75.30
39493;DHT22;25176;51.060;3.720;2023-04-10T06:30:03;12.20;74.90
39493;DHT22;25176;51.060;3.720;2023-04-10T06:32:29;12.20;74.60
39493;DHT22;25176;51.060;3.720;2023-04-10T06:34:55;12.30;74.80
39493;DHT22;25176;51.060;3.720;2023-04-10T06:37:30;12.40;74.20
39493;DHT22;25176;51.060;3.720;2023-04-10T06:40:07;12.60;74.00
39493;DHT22;25176;51.060;3.720;2023-04-10T06:42:34;12.50;74.30
39493;DHT22;25176;51.060;3.720;2023-04-10T06:45:00;12.40;74.40
39493;DHT22;25176;51.060;3.720;2023-04-10T06:47:26;12.50;74.60
39493;DHT22;25176;51.060;3.720;2023-04-10T06:49:51;12.60;73.90
39493;DHT22;25176;51.060;3.720;2023-04-10T06:52:18;12.70;73.80
39493;DHT22;25176;51.060;3.720;2023-04-10T06:54:43;12.70;73.90
39493;DHT22;25176;51.060;3.720;2023-04-10T06:57:09;12.80;73.50
39493;DHT22;25176;51.060;3.720;2023-04-10T06:59:34;12.90;73.50
39493;DHT22;25176;51.060;3.720;2023-04-10T07:02:02;13.10;73.10
39493;DHT22;25176;51.060;3.720;2023-04-10T07:04:27;13.20;72.50
39493;DHT22;25176;51.060;3.720;2023-04-10T07:06:53;13.40;72.20
39493;DHT22;25176;51.060;3.720;2023-04-10T07:09:18;13.30;72.10
39493;DHT22;25176;51.060;3.720;2023-04-10T07:11:44;13.40;72.00
39493;DHT22;25176;51.060;3.720;2023-04-10T07:14:10;13.40;72.60
39493;DHT22;25176;51.060;3.720;2023-04-10T07:16:36;13.30;72.50
39493;DHT22;25176;51.060;3.720;2023-04-10T07:19:02;13.30;72.60
39493;DHT22;25176;51.060;3.720;2023-04-10T07:21:27;13.30;72.20
39493;DHT22;25176;51.060;3.720;2023-04-10T07:23:53;13.20;72.90
39493;DHT22;25176;51.060;3.720;2023-04-10T07:26:19;13.30;72.90
39493;DHT22;25176;51.060;3.720;2023-04-10T07:28:44;13.40;72.80
39493;DHT22;25176;51.060;3.720;2023-04-10T07:31:10;13.50;72.50
39493;DHT22;25176;51.060;3.720;2023-04-10T07:33:37;13.50;73.10
39493;DHT22;25176;51.060;3.720;2023-04-10T07:36:03;13.50;72.40
39493;DHT22;25176;51.060;3.720;2023-04-10T07:38:30;13.60;72.50
39493;DHT22;25176;51.060;3.720;2023-04-10T07:40:57;13.60;71.70
39493;DHT22;25176;51.060;3.720;2023-04-10T07:43:23;13.60;72.30
39493;DHT22;25176;51.060;3.720;2023-04-10T07:45:48;13.70;72.00
39493;DHT22;25176;51.060;3.720;2023-04-10T07:48:14;13.90;72.00
39493;DHT22;25176;51.060;3.720;2023-04-10T07:50:40;14.20;71.10
39493;DHT22;25176;51.060;3.720;2023-04-10T07:53:05;14.10;71.20
39493;DHT22;25176;51.060;3.720;2023-04-10T07:55:37;14.20;70.60
39493;DHT22;25176;51.060;3.720;2023-04-10T07:58:03;14.30;71.20
39493;DHT22;25176;51.060;3.720;2023-04-10T08:00:29;14.40;70.40
39493;DHT22;25176;51.060;3.720;2023-04-10T08:02:54;14.20;71.30
39493;DHT22;25176;51.060;3.720;2023-04-10T08:05:20;14.10;71.40
39493;DHT22;25176;51.060;3.720;2023-04-10T08:07:46;14.10;71.40
39493;DHT22;25176;51.060;3.720;2023-04-10T08:10:11;14.10;71.70
39493;DHT22;25176;51.060;3.720;2023-04-10T08:12:37;14.10;71.50
39493;DHT22;25176;51.060;3.720;2023-04-10T08:15:03;14.00;71.90
39493;DHT22;25176;51.060;3.720;2023-04-10T08:17:28;14.00;71.70
39493;DHT22;25176;51.060;3.720;2023-04-10T08:19:55;13.90;72.10
39493;DHT22;25176;51.060;3.720;2023-04-10T08:22:20;14.20;71.90
39493;DHT22;25176;51.060;3.720;2023-04-10T08:24:46;14.10;72.20
39493;DHT22;25176;51.060;3.720;2023-04-10T08:27:11;14.20;72.00
39493;DHT22;25176;51.060;3.720;2023-04-10T08:29:38;14.40;71.90
39493;DHT22;25176;51.060;3.720;2023-04-10T08:32:04;14.50;71.80
39493;DHT22;25176;51.060;3.720;2023-04-10T08:34:29;14.70;71.40
39493;DHT22;25176;51.060;3.720;2023-04-10T08:36:56;14.80;71.20
39493;DHT22;25176;51.060;3.720;2023-04-10T08:39:21;14.90;70.90
39493;DHT22;25176;51.060;3.720;2023-04-10T08:41:47;15.00;70.20
39493;DHT22;25176;51.060;3.720;2023-04-10T08:44:13;14.90;71.30
39493;DHT22;25176;51.060;3.720;2023-04-10T08:46:42;14.90;70.80
39493;DHT22;25176;51.060;3.720;2023-04-10T08:49:10;14.70;71.50
39493;DHT22;25176;51.060;3.720;2023-04-10T08:51:45;15.00;71.30
39493;DHT22;25176;51.060;3.720;2023-04-10T08:54:29;14.90;71.40
39493;DHT22;25176;51.060;3.720;2023-04-10T08:56:56;15.00;71.40
39493;DHT22;25176;51.060;3.720;2023-04-10T08:59:23;14.90;71.60
39493;DHT22;25176;51.060;3.720;2023-04-10T09:01:48;15.20;71.30
39493;DHT22;25176;51.060;3.720;2023-04-10T09:04:14;15.00;71.30
39493;DHT22;25176;51.060;3.720;2023-04-10T09:06:42;14.90;71.80
39493;DHT22;25176;51.060;3.720;2023-04-10T09:09:07;15.00;71.50
39493;DHT22;25176;51.060;3.720;2023-04-10T09:14:21;15.20;71.30
39493;DHT22;25176;51.060;3.720;2023-04-10T09:16:48;15.30;71.30
39493;DHT22;25176;51.060;3.720;2023-04-10T09:19:29;15.60;70.90
39493;DHT22;25176;51.060;3.720;2023-04-10T09:21:55;15.30;71.90
39493;DHT22;25176;51.060;3.720;2023-04-10T09:24:22;15.40;71.40
39493;DHT22;25176;51.060;3.720;2023-04-10T09:26:48;15.80;70.60
39493;DHT22;25176;51.060;3.720;2023-04-10T09:29:13;15.90;70.50
39493;DHT22;25176;51.060;3.720;2023-04-10T09:31:41;16.10;69.80
39493;DHT22;25176;51.060;3.720;2023-04-10T09:34:19;16.80;69.90
39493;DHT22;25176;51.060;3.720;2023-04-10T09:36:54;18.00;67.30
39493;DHT22;25176;51.060;3.720;2023-04-10T09:39:20;19.40;65.20
39493;DHT22;25176;51.060;3.720;2023-04-10T09:41:50;19.60;62.60
39493;DHT22;25176;51.060;3.720;2023-04-10T09:44:18;19.90;61.80
39493;DHT22;25176;51.060;3.720;2023-04-10T09:46:52;18.50;63.90
39493;DHT22;25176;51.060;3.720;2023-04-10T09:49:18;18.50;64.90
39493;DHT22;25176;51.060;3.720;2023-04-10T09:51:43;18.60;65.00
39493;DHT22;25176;51.060;3.720;2023-04-10T09:54:09;19.00;64.30
39493;DHT22;25176;51.060;3.720;2023-04-10T09:56:37;19.40;62.60
39493;DHT22;25176;51.060;3.720;2023-04-10T09:59:05;19.20;63.50
39493;DHT22;25176;51.060;3.720;2023-04-10T10:01:32;18.80;64.00
39493;DHT22;25176;51.060;3.720;2023-04-10T10:04:03;18.90;64.20
39493;DHT22;25176;51.060;3.720;2023-04-10T10:06:32;18.70;64.30
39493;DHT22;25176;51.060;3.720;2023-04-10T10:09:03;18.90;64.30
39493;DHT22;25176;51.060;3.720;2023-04-10T10:11:31;19.10;64.40
39493;DHT22;25176;51.060;3.720;2023-04-10T10:13:59;19.50;63.30
39493;DHT22;25176;51.060;3.720;2023-04-10T10:16:36;19.40;63.10
39493;DHT22;25176;51.060;3.720;2023-04-10T10:21:52;19.10;64.20
39493;DHT22;25176;51.060;3.720;2023-04-10T10:24:19;18.90;64.40
39493;DHT22;25176;51.060;3.720;2023-04-10T10:26:46;18.60;65.10
39493;DHT22;25176;51.060;3.720;2023-04-10T10:29:14;18.60;65.30
39493;DHT22;25176;51.060;3.720;2023-04-10T10:31:41;18.70;65.50
39493;DHT22;25176;51.060;3.720;2023-04-10T10:34:07;18.70;65.60
39493;DHT22;25176;51.060;3.720;2023-04-10T10:36:39;18.90;65.30
39493;DHT22;25176;51.060;3.720;2023-04-10T10:42:35;17.90;66.80
39493;DHT22;25176;51.060;3.720;2023-04-10T10:45:07;17.90;67.20
39493;DHT22;25176;51.060;3.720;2023-04-10T10:47:39;17.80;67.30
39493;DHT22;25176;51.060;3.720;2023-04-10T10:50:06;17.60;67.70
39493;DHT22;25176;51.060;3.720;2023-04-10T10:52:48;17.40;69.20
39493;DHT22;25176;51.060;3.720;2023-04-10T10:57:57;17.30;69.20
39493;DHT22;25176;51.060;3.720;2023-04-10T11:00:27;17.20;69.40
39493;DHT22;25176;51.060;3.720;2023-04-10T11:03:26;17.30;69.30
39493;DHT22;25176;51.060;3.720;2023-04-10T11:13:38;17.50;69.20
39493;DHT22;25176;51.060;3.720;2023-04-10T11:16:05;17.50;69.90
39493;DHT22;25176;51.060;3.720;2023-04-10T11:21:18;17.30;72.20
39493;DHT22;25176;51.060;3.720;2023-04-10T11:24:05;17.30;72.90
39493;DHT22;25176;51.060;3.720;2023-04-10T11:32:02;17.00;74.30
39493;DHT22;25176;51.060;3.720;2023-04-10T11:34:29;17.00;75.10
39493;DHT22;25176;51.060;3.720;2023-04-10T11:37:01;17.00;75.60
39493;DHT22;25176;51.060;3.720;2023-04-10T11:39:29;16.90;75.20
39493;DHT22;25176;51.060;3.720;2023-04-10T11:41:55;16.80;76.20
39493;DHT22;25176;51.060;3.720;2023-04-10T11:46:50;16.50;78.40
39493;DHT22;25176;51.060;3.720;2023-04-10T11:49:20;16.50;78.80
39493;DHT22;25176;51.060;3.720;2023-04-10T11:51:50;16.50;79.50
39493;DHT22;25176;51.060;3.720;2023-04-10T11:54:16;16.50;79.40
39493;DHT22;25176;51.060;3.720;2023-04-10T11:56:45;16.50;79.70
39493;DHT22;25176;51.060;3.720;2023-04-10T11:59:18;16.30;80.90
39493;DHT22;25176;51.060;3.720;2023-04-10T12:01:45;16.30;81.50
39493;DHT22;25176;51.060;3.720;2023-04-10T12:04:21;16.30;81.50
39493;DHT22;25176;51.060;3.720;2023-04-10T12:06:52;16.50;82.00
39493;DHT22;25176;51.060;3.720;2023-04-10T12:09:20;16.60;81.80
39493;DHT22;25176;51.060;3.720;2023-04-10T12:11:55;16.40;82.10
39493;DHT22;25176;51.060;3.720;2023-04-10T12:14:22;16.50;82.40
39493;DHT22;25176;51.060;3.720;2023-04-10T12:16:49;16.30;82.90
39493;DHT22;25176;51.060;3.720;2023-04-10T12:19:15;16.30;84.00
39493;DHT22;25176;51.060;3.720;2023-04-10T12:21:43;16.30;83.80
39493;DHT22;25176;51.060;3.720;2023-04-10T12:24:10;16.40;85.00
39493;DHT22;25176;51.060;3.720;2023-04-10T12:26:36;16.40;84.60
39493;DHT22;25176;51.060;3.720;2023-04-10T12:29:02;16.60;84.20
39493;DHT22;25176;51.060;3.720;2023-04-10T12:31:33;16.60;84.20
39493;DHT22;25176;51.060;3.720;2023-04-10T12:34:00;16.70;85.30
39493;DHT22;25176;51.060;3.720;2023-04-10T12:36:27;16.50;83.70
39493;DHT22;25176;51.060;3.720;2023-04-10T12:38:55;16.40;84.10
39493;DHT22;25176;51.060;3.720;2023-04-10T12:41:22;16.40;84.30
39493;DHT22;25176;51.060;3.720;2023-04-10T12:43:49;16.40;85.30
39493;DHT22;25176;51.060;3.720;2023-04-10T12:46:26;16.40;84.60
39493;DHT22;25176;51.060;3.720;2023-04-10T12:48:55;16.50;85.00
39493;DHT22;25176;51.060;3.720;2023-04-10T12:54:29;16.40;85.40
39493;DHT22;25176;51.060;3.720;2023-04-10T12:56:54;16.50;85.40
39493;DHT22;25176;51.060;3.720;2023-04-10T12:59:20;16.50;84.90
39493;DHT22;25176;51.060;3.720;2023-04-10T13:01:46;16.60;85.60
39493;DHT22;25176;51.060;3.720;2023-04-10T13:04:11;16.60;84.00
39493;DHT22;25176;51.060;3.720;2023-04-10T13:06:46;16.80;85.60
39493;DHT22;25176;51.060;3.720;2023-04-10T13:09:13;16.60;86.30
39493;DHT22;25176;51.060;3.720;2023-04-10T13:11:39;16.70;85.70
39493;DHT22;25176;51.060;3.720;2023-04-10T13:14:05;16.60;86.20
39493;DHT22;25176;51.060;3.720;2023-04-10T13:16:30;16.50;86.80
39493;DHT22;25176;51.060;3.720;2023-04-10T13:18:56;16.60;86.00
39493;DHT22;25176;51.060;3.720;2023-04-10T13:21:21;16.70;86.00
39493;DHT22;25176;51.060;3.720;2023-04-10T13:23:50;16.90;86.40
39493;DHT22;25176;51.060;3.720;2023-04-10T13:26:16;17.10;84.80
39493;DHT22;25176;51.060;3.720;2023-04-10T13:28:42;17.00;84.10
39493;DHT22;25176;51.060;3.720;2023-04-10T13:31:07;17.10;84.50
39493;DHT22;25176;51.060;3.720;2023-04-10T13:33:33;17.00;84.80
39493;DHT22;25176;51.060;3.720;2023-04-10T13:35:58;17.00;84.70
39493;DHT22;25176;51.060;3.720;2023-04-10T13:38:24;17.00;84.20
39493;DHT22;25176;51.060;3.720;2023-04-10T13:40:49;17.00;84.60
39493;DHT22;25176;51.060;3.720;2023-04-10T13:43:15;16.90;84.40
39493;DHT22;25176;51.060;3.720;2023-04-10T13:45:40;16.80;84.90
39493;DHT22;25176;51.060;3.720;2023-04-10T13:48:06;16.80;84.70
39493;DHT22;25176;51.060;3.720;2023-04-10T13:50:32;16.80;83.50
39493;DHT22;25176;51.060;3.720;2023-04-10T13:52:58;16.80;84.20
39493;DHT22;25176;51.060;3.720;2023-04-10T13:55:24;16.70;84.10
39493;DHT22;25176;51.060;3.720;2023-04-10T13:57:50;16.80;84.20
39493;DHT22;25176;51.060;3.720;2023-04-10T14:00:15;16.80;83.70
39493;DHT22;25176;51.060;3.720;2023-04-10T14:02:41;16.60;85.30
39493;DHT22;25176;51.060;3.720;2023-04-10T14:05:07;16.30;88.20
39493;DHT22;25176;51.060;3.720;2023-04-10T14:07:33;16.20;90.10
39493;DHT22;25176;51.060;3.720;2023-04-10T14:09:59;16.00;91.40
39493;DHT22;25176;51.060;3.720;2023-04-10T14:12:25;15.90;92.80
39493;DHT22;25176;51.060;3.720;2023-04-10T14:14:51;15.80;93.20
39493;DHT22;25176;51.060;3.720;2023-04-10T14:17:17;15.70;93.50
39493;DHT22;25176;51.060;3.720;2023-04-10T14:19:43;15.60;94.30
39493;DHT22;25176;51.060;3.720;2023-04-10T14:22:11;15.60;95.10
39493;DHT22;25176;51.060;3.720;2023-04-10T14:24:37;15.50;95.70
39493;DHT22;25176;51.060;3.720;2023-04-10T14:27:02;15.60;96.80
39493;DHT22;25176;51.060;3.720;2023-04-10T14:29:28;15.40;97.20
39493;DHT22;25176;51.060;3.720;2023-04-10T14:31:55;15.40;98.20
39493;DHT22;25176;51.060;3.720;2023-04-10T14:34:21;15.40;98.60
39493;DHT22;25176;51.060;3.720;2023-04-10T14:36:46;15.20;99.60
39493;DHT22;25176;51.060;3.720;2023-04-10T14:39:12;15.20;99.90
39493;DHT22;25176;51.060;3.720;2023-04-10T14:41:37;15.00;99.90
39493;DHT22;25176;51.060;3.720;2023-04-10T14:44:03;15.00;99.90
39493;DHT22;25176;51.060;3.720;2023-04-10T14:46:29;14.90;99.90
39493;DHT22;25176;51.060;3.720;2023-04-10T14:48:54;15.00;99.90
39493;DHT22;25176;51.060;3.720;2023-04-10T14:51:20;14.90;99.90
39493;DHT22;25176;51.060;3.720;2023-04-10T14:53:45;14.80;99.90
39493;DHT22;25176;51.060;3.720;2023-04-10T14:56:12;14.70;99.90
39493;DHT22;25176;51.060;3.720;2023-04-10T14:58:38;14.70;99.90
39493;DHT22;25176;51.060;3.720;2023-04-10T15:01:08;14.80;99.90
39493;DHT22;25176;51.060;3.720;2023-04-10T15:03:34;14.70;99.90
39493;DHT22;25176;51.060;3.720;2023-04-10T15:06:00;14.70;99.90
39493;DHT22;25176;51.060;3.720;2023-04-10T15:08:25;14.70;99.90
39493;DHT22;25176;51.060;3.720;2023-04-10T15:10:51;14.80;99.90
39493;DHT22;25176;51.060;3.720;2023-04-10T15:13:19;14.60;99.90
39493;DHT22;25176;51.060;3.720;2023-04-10T15:15:44;14.60;99.90
39493;DHT22;25176;51.060;3.720;2023-04-10T15:18:10;14.50;99.90
39493;DHT22;25176;51.060;3.720;2023-04-10T15:20:35;14.50;99.90
39493;DHT22;25176;51.060;3.720;2023-04-10T15:23:01;14.60;99.90
39493;DHT22;25176;51.060;3.720;2023-04-10T15:25:27;14.50;99.90
39493;DHT22;25176;51.060;3.720;2023-04-10T15:27:56;14.50;99.90
39493;DHT22;25176;51.060;3.720;2023-04-10T15:30:22;14.50;99.90
39493;DHT22;25176;51.060;3.720;2023-04-10T15:32:47;14.60;99.90
39493;DHT22;25176;51.060;3.720;2023-04-10T15:35:13;14.60;99.90
39493;DHT22;25176;51.060;3.720;2023-04-10T15:37:38;14.50;99.90
39493;DHT22;25176;51.060;3.720;2023-04-10T15:40:04;14.40;99.90
39493;DHT22;25176;51.060;3.720;2023-04-10T15:42:30;14.30;99.90
39493;DHT22;25176;51.060;3.720;2023-04-10T15:44:56;14.30;99.90
39493;DHT22;25176;51.060;3.720;2023-04-10T15:47:21;14.50;99.90
39493;DHT22;25176;51.060;3.720;2023-04-10T15:49:47;14.50;99.90
39493;DHT22;25176;51.060;3.720;2023-04-10T15:52:13;14.60;99.90
39493;DHT22;25176;51.060;3.720;2023-04-10T15:54:38;14.60;99.90
39493;DHT22;25176;51.060;3.720;2023-04-10T15:57:04;14.50;99.90
39493;DHT22;25176;51.060;3.720;2023-04-10T15:59:30;14.50;99.90
39493;DHT22;25176;51.060;3.720;2023-04-10T16:01:56;14.50;99.90
39493;DHT22;25176;51.060;3.720;2023-04-10T16:04:22;14.50;99.90
39493;DHT22;25176;51.060;3.720;2023-04-10T16:06:47;14.50;99.90